sensor_id;sensor_type;location;lat;lon;timestamp;temperature;humidity
35563;DHT22;21665;40.108;18.302;2023-12-22T00:01:25;8.40;99.90
35563;DHT22;21665;40.108;18.302;2023-12-22T00:03:52;8.30;99.90
35563;DHT22;21665;40.108;18.302;2023-12-22T00:06:18;8.30;99.90
35563;DHT22;21665;40.108;18.302;2023-12-22T00:08:45;8.30;99.90
35563;DHT22;21665;40.108;18.302;2023-12-22T00:11:14;8.20;99.90
35563;DHT22;21665;40.108;18.302;2023-12-22T00:13:41;8.10;99.90
35563;DHT22;21665;40.108;18.302;2023-12-22T00:16:08;8.10;99.90
35563;DHT22;21665;40.108;18.302;2023-12-22T00:18:34;8.10;99.90
35563;DHT22;21665;40.108;18.302;2023-12-22T00:21:02;8.10;99.90
35563;DHT22;21665;40.108;18.302;2023-12-22T00:23:29;8.10;99.90
35563;DHT22;21665;40.108;18.302;2023-12-22T00:25:56;8.10;99.90
35563;DHT22;21665;40.108;18.302;2023-12-22T00:28:22;8.20;99.90
35563;DHT22;21665;40.108;18.302;2023-12-22T00:30:49;8.20;99.90
35563;DHT22;21665;40.108;18.302;2023-12-22T00:33:15;8.30;99.90
35563;DHT22;21665;40.108;18.302;2023-12-22T00:35:42;8.30;99.90
35563;DHT22;21665;40.108;18.302;2023-12-22T00:38:08;8.40;99.90
35563;DHT22;21665;40.108;18.302;2023-12-22T00:40:37;8.50;99.90
35563;DHT22;21665;40.108;18.302;2023-12-22T00:43:03;8.70;99.90
35563;DHT22;21665;40.108;18.302;2023-12-22T00:45:30;8.80;99.90
35563;DHT22;21665;40.108;18.302;2023-12-22T00:47:57;8.80;99.90
35563;DHT22;21665;40.108;18.302;2023-12-22T00:50:23;8.90;99.90
35563;DHT22;21665;40.108;18.302;2023-12-22T00:52:50;9.00;99.90
35563;DHT22;21665;40.108;18.302;2023-12-22T00:55:16;9.00;99.90
35563;DHT22;21665;40.108;18.302;2023-12-22T00:57:43;9.10;99.90
35563;DHT22;21665;40.108;18.302;2023-12-22T01:00:10;9.10;99.90
35563;DHT22;21665;40.108;18.302;2023-12-22T01:02:38;9.10;99.90
35563;DHT22;21665;40.108;18.302;2023-12-22T01:05:05;9.20;99.90
35563;DHT22;21665;40.108;18.302;2023-12-22T01:07:32;9.20;99.90
35563;DHT22;21665;40.108;18.302;2023-12-22T01:09:58;9.40;99.90
35563;DHT22;21665;40.108;18.302;2023-12-22T01:12:28;9.40;99.90
35563;DHT22;21665;40.108;18.302;2023-12-22T01:14:56;9.40;99.90
35563;DHT22;21665;40.108;18.302;2023-12-22T01:17:22;9.50;99.90
35563;DHT22;21665;40.108;18.302;2023-12-22T01:19:49;9.40;99.90
35563;DHT22;21665;40.108;18.302;2023-12-22T01:22:17;9.40;99.90
35563;DHT22;21665;40.108;18.302;2023-12-22T01:24:44;9.40;99.90
35563;DHT22;21665;40.108;18.302;2023-12-22T01:27:11;9.40;99.90
35563;DHT22;21665;40.108;18.302;2023-12-22T01:29:38;9.40;99.90
35563;DHT22;21665;40.108;18.302;2023-12-22T01:32:11;9.40;99.90
35563;DHT22;21665;40.108;18.302;2023-12-22T01:34:37;9.30;99.90
35563;DHT22;21665;40.108;18.302;2023-12-22T01:37:04;9.20;99.90
35563;DHT22;21665;40.108;18.302;2023-12-22T01:39:30;9.20;99.90
35563;DHT22;21665;40.108;18.302;2023-12-22T01:41:56;9.10;99.90
35563;DHT22;21665;40.108;18.302;2023-12-22T01:44:23;9.10;99.90
35563;DHT22;21665;40.108;18.302;2023-12-22T01:46:50;9.10;99.90
35563;DHT22;21665;40.108;18.302;2023-12-22T01:49:17;9.10;99.90
35563;DHT22;21665;40.108;18.302;2023-12-22T01:51:44;9.00;99.90
35563;DHT22;21665;40.108;18.302;2023-12-22T01:54:11;9.00;99.90
35563;DHT22;21665;40.108;18.302;2023-12-22T01:56:39;9.00;99.90
35563;DHT22;21665;40.108;18.302;2023-12-22T01:59:07;9.00;99.90
35563;DHT22;21665;40.108;18.302;2023-12-22T02:01:35;9.00;99.90
35563;DHT22;21665;40.108;18.302;2023-12-22T02:04:02;8.90;99.90
35563;DHT22;21665;40.108;18.302;2023-12-22T02:06:30;9.00;99.90
35563;DHT22;21665;40.108;18.302;2023-12-22T02:08:58;8.90;99.90
35563;DHT22;21665;40.108;18.302;2023-12-22T02:11:24;9.00;99.90
35563;DHT22;21665;40.108;18.302;2023-12-22T02:13:51;8.90;99.90
35563;DHT22;21665;40.108;18.302;2023-12-22T02:17:01;8.90;99.90
35563;DHT22;21665;40.108;18.302;2023-12-22T02:20:01;8.90;99.90
35563;DHT22;21665;40.108;18.302;2023-12-22T02:22:11;8.80;99.90
35563;DHT22;21665;40.108;18.302;2023-12-22T02:24:41;8.70;99.90
35563;DHT22;21665;40.108;18.302;2023-12-22T02:30:17;8.70;99.90
35563;DHT22;21665;40.108;18.302;2023-12-22T02:32:50;8.60;99.90
35563;DHT22;21665;40.108;18.302;2023-12-22T02:35:23;8.60;99.90
35563;DHT22;21665;40.108;18.302;2023-12-22T02:37:51;8.50;99.90
35563;DHT22;21665;40.108;18.302;2023-12-22T02:40:20;8.40;99.90
35563;DHT22;21665;40.108;18.302;2023-12-22T02:42:46;8.40;99.90
35563;DHT22;21665;40.108;18.302;2023-12-22T02:45:18;8.30;99.90
35563;DHT22;21665;40.108;18.302;2023-12-22T02:47:46;8.30;99.90
35563;DHT22;21665;40.108;18.302;2023-12-22T02:50:15;8.20;99.90
35563;DHT22;21665;40.108;18.302;2023-12-22T02:52:42;8.10;99.90
35563;DHT22;21665;40.108;18.302;2023-12-22T02:55:09;8.10;99.90
35563;DHT22;21665;40.108;18.302;2023-12-22T02:57:35;8.00;99.90
35563;DHT22;21665;40.108;18.302;2023-12-22T03:00:02;7.90;99.90
35563;DHT22;21665;40.108;18.302;2023-12-22T03:02:29;7.90;99.90
35563;DHT22;21665;40.108;18.302;2023-12-22T03:04:55;7.90;99.90
35563;DHT22;21665;40.108;18.302;2023-12-22T03:07:22;7.80;99.90
35563;DHT22;21665;40.108;18.302;2023-12-22T03:09:49;7.80;99.90
35563;DHT22;21665;40.108;18.302;2023-12-22T03:12:15;7.80;99.90
35563;DHT22;21665;40.108;18.302;2023-12-22T03:14:41;7.80;99.90
35563;DHT22;21665;40.108;18.302;2023-12-22T03:17:08;7.80;99.90
35563;DHT22;21665;40.108;18.302;2023-12-22T03:19:36;7.70;99.90
35563;DHT22;21665;40.108;18.302;2023-12-22T03:22:06;7.80;99.90
35563;DHT22;21665;40.108;18.302;2023-12-22T03:24:32;7.80;99.90
35563;DHT22;21665;40.108;18.302;2023-12-22T03:26:59;7.80;99.90
35563;DHT22;21665;40.108;18.302;2023-12-22T03:29:29;7.80;99.90
35563;DHT22;21665;40.108;18.302;2023-12-22T03:31:55;7.90;99.90
35563;DHT22;21665;40.108;18.302;2023-12-22T03:34:21;8.00;99.90
35563;DHT22;21665;40.108;18.302;2023-12-22T03:36:48;8.00;99.90
35563;DHT22;21665;40.108;18.302;2023-12-22T03:39:18;7.90;99.90
35563;DHT22;21665;40.108;18.302;2023-12-22T03:41:44;7.90;99.90
35563;DHT22;21665;40.108;18.302;2023-12-22T03:44:10;8.00;99.90
35563;DHT22;21665;40.108;18.302;2023-12-22T03:46:37;8.00;99.90
35563;DHT22;21665;40.108;18.302;2023-12-22T03:49:03;8.20;99.90
35563;DHT22;21665;40.108;18.302;2023-12-22T03:51:29;8.30;99.90
35563;DHT22;21665;40.108;18.302;2023-12-22T03:53:56;8.50;99.90
35563;DHT22;21665;40.108;18.302;2023-12-22T03:56:22;8.70;99.90
35563;DHT22;21665;40.108;18.302;2023-12-22T03:58:49;9.00;99.90
35563;DHT22;21665;40.108;18.302;2023-12-22T04:01:15;9.30;99.90
35563;DHT22;21665;40.108;18.302;2023-12-22T04:03:42;9.70;99.90
35563;DHT22;21665;40.108;18.302;2023-12-22T04:06:08;10.10;99.90
35563;DHT22;21665;40.108;18.302;2023-12-22T04:08:35;10.30;99.90
35563;DHT22;21665;40.108;18.302;2023-12-22T04:11:01;10.40;99.90
35563;DHT22;21665;40.108;18.302;2023-12-22T04:13:28;10.50;99.90
35563;DHT22;21665;40.108;18.302;2023-12-22T04:15:54;10.60;99.90
35563;DHT22;21665;40.108;18.302;2023-12-22T04:18:21;10.80;99.90
35563;DHT22;21665;40.108;18.302;2023-12-22T04:20:47;10.70;99.90
35563;DHT22;21665;40.108;18.302;2023-12-22T04:23:15;10.60;99.90
35563;DHT22;21665;40.108;18.302;2023-12-22T04:25:42;10.70;99.90
35563;DHT22;21665;40.108;18.302;2023-12-22T04:28:08;10.50;99.90
35563;DHT22;21665;40.108;18.302;2023-12-22T04:30:34;10.50;99.90
35563;DHT22;21665;40.108;18.302;2023-12-22T04:33:01;10.40;99.90
35563;DHT22;21665;40.108;18.302;2023-12-22T04:35:28;10.30;99.90
35563;DHT22;21665;40.108;18.302;2023-12-22T04:37:56;10.20;99.90
35563;DHT22;21665;40.108;18.302;2023-12-22T04:40:23;10.10;99.90
35563;DHT22;21665;40.108;18.302;2023-12-22T04:42:50;10.10;99.90
35563;DHT22;21665;40.108;18.302;2023-12-22T04:45:17;10.10;99.90
35563;DHT22;21665;40.108;18.302;2023-12-22T04:47:43;10.10;99.90
35563;DHT22;21665;40.108;18.302;2023-12-22T04:50:09;10.00;99.90
35563;DHT22;21665;40.108;18.302;2023-12-22T04:52:36;10.00;99.90
35563;DHT22;21665;40.108;18.302;2023-12-22T04:55:06;10.00;99.90
35563;DHT22;21665;40.108;18.302;2023-12-22T04:57:32;10.00;99.90
35563;DHT22;21665;40.108;18.302;2023-12-22T04:59:59;9.90;99.90
35563;DHT22;21665;40.108;18.302;2023-12-22T05:02:25;9.90;99.90
35563;DHT22;21665;40.108;18.302;2023-12-22T05:04:52;9.80;99.90
35563;DHT22;21665;40.108;18.302;2023-12-22T05:07:18;9.80;99.90
35563;DHT22;21665;40.108;18.302;2023-12-22T05:09:45;9.80;99.90
35563;DHT22;21665;40.108;18.302;2023-12-22T05:12:11;9.70;99.90
35563;DHT22;21665;40.108;18.302;2023-12-22T05:14:38;9.70;99.90
35563;DHT22;21665;40.108;18.302;2023-12-22T05:17:04;9.70;99.90
35563;DHT22;21665;40.108;18.302;2023-12-22T05:19:30;9.70;99.90
35563;DHT22;21665;40.108;18.302;2023-12-22T05:21:57;9.60;99.90
35563;DHT22;21665;40.108;18.302;2023-12-22T05:24:24;9.60;99.90
35563;DHT22;21665;40.108;18.302;2023-12-22T05:26:53;9.50;99.90
35563;DHT22;21665;40.108;18.302;2023-12-22T05:29:19;9.50;99.90
35563;DHT22;21665;40.108;18.302;2023-12-22T05:31:46;9.50;99.90
35563;DHT22;21665;40.108;18.302;2023-12-22T05:34:12;9.50;99.90
35563;DHT22;21665;40.108;18.302;2023-12-22T05:36:39;9.40;99.90
35563;DHT22;21665;40.108;18.302;2023-12-22T05:39:05;9.40;99.90
35563;DHT22;21665;40.108;18.302;2023-12-22T05:41:35;9.30;99.90
35563;DHT22;21665;40.108;18.302;2023-12-22T05:44:13;9.30;99.90
35563;DHT22;21665;40.108;18.302;2023-12-22T05:46:39;9.20;99.90
35563;DHT22;21665;40.108;18.302;2023-12-22T05:49:06;9.10;99.90
35563;DHT22;21665;40.108;18.302;2023-12-22T05:51:39;9.20;99.90
35563;DHT22;21665;40.108;18.302;2023-12-22T05:54:09;9.20;99.90
35563;DHT22;21665;40.108;18.302;2023-12-22T05:56:36;9.20;99.90
35563;DHT22;21665;40.108;18.302;2023-12-22T05:59:03;9.10;99.90
35563;DHT22;21665;40.108;18.302;2023-12-22T06:01:29;9.20;99.90
35563;DHT22;21665;40.108;18.302;2023-12-22T06:03:59;9.20;99.90
35563;DHT22;21665;40.108;18.302;2023-12-22T06:06:25;9.30;99.90
35563;DHT22;21665;40.108;18.302;2023-12-22T06:08:53;9.30;99.90
35563;DHT22;21665;40.108;18.302;2023-12-22T06:11:20;9.40;99.90
35563;DHT22;21665;40.108;18.302;2023-12-22T06:13:46;9.50;99.90
35563;DHT22;21665;40.108;18.302;2023-12-22T06:16:13;9.60;99.90
35563;DHT22;21665;40.108;18.302;2023-12-22T06:18:41;9.60;99.90
35563;DHT22;21665;40.108;18.302;2023-12-22T06:21:10;9.70;99.90
35563;DHT22;21665;40.108;18.302;2023-12-22T06:23:39;9.70;99.90
35563;DHT22;21665;40.108;18.302;2023-12-22T06:26:09;9.80;99.90
35563;DHT22;21665;40.108;18.302;2023-12-22T06:28:37;9.80;99.90
35563;DHT22;21665;40.108;18.302;2023-12-22T06:31:07;9.90;99.90
35563;DHT22;21665;40.108;18.302;2023-12-22T06:33:33;10.00;99.90
35563;DHT22;21665;40.108;18.302;2023-12-22T06:36:00;10.20;99.90
35563;DHT22;21665;40.108;18.302;2023-12-22T06:38:26;10.30;99.90
35563;DHT22;21665;40.108;18.302;2023-12-22T06:40:54;10.30;99.90
35563;DHT22;21665;40.108;18.302;2023-12-22T06:43:27;10.40;99.90
35563;DHT22;21665;40.108;18.302;2023-12-22T06:45:54;10.50;99.90
35563;DHT22;21665;40.108;18.302;2023-12-22T06:48:21;10.60;99.90
35563;DHT22;21665;40.108;18.302;2023-12-22T06:50:48;10.70;99.90
35563;DHT22;21665;40.108;18.302;2023-12-22T06:53:14;10.70;99.90
35563;DHT22;21665;40.108;18.302;2023-12-22T06:55:41;10.80;99.90
35563;DHT22;21665;40.108;18.302;2023-12-22T06:58:08;10.80;99.90
35563;DHT22;21665;40.108;18.302;2023-12-22T07:00:34;10.80;99.90
35563;DHT22;21665;40.108;18.302;2023-12-22T07:03:04;10.90;99.90
35563;DHT22;21665;40.108;18.302;2023-12-22T07:05:32;10.90;99.90
35563;DHT22;21665;40.108;18.302;2023-12-22T07:07:59;10.90;99.90
35563;DHT22;21665;40.108;18.302;2023-12-22T07:10:29;11.00;99.90
35563;DHT22;21665;40.108;18.302;2023-12-22T07:12:56;11.10;99.90
35563;DHT22;21665;40.108;18.302;2023-12-22T07:15:25;11.20;99.90
35563;DHT22;21665;40.108;18.302;2023-12-22T07:17:52;11.30;99.90
35563;DHT22;21665;40.108;18.302;2023-12-22T07:20:22;11.40;99.90
35563;DHT22;21665;40.108;18.302;2023-12-22T07:22:48;11.60;99.90
35563;DHT22;21665;40.108;18.302;2023-12-22T07:25:15;11.60;99.90
35563;DHT22;21665;40.108;18.302;2023-12-22T07:27:41;11.70;99.90
35563;DHT22;21665;40.108;18.302;2023-12-22T07:30:08;11.80;99.90
35563;DHT22;21665;40.108;18.302;2023-12-22T07:32:38;11.90;99.90
35563;DHT22;21665;40.108;18.302;2023-12-22T07:35:04;12.00;99.90
35563;DHT22;21665;40.108;18.302;2023-12-22T07:37:31;12.00;99.90
35563;DHT22;21665;40.108;18.302;2023-12-22T07:39:57;12.00;99.90
35563;DHT22;21665;40.108;18.302;2023-12-22T07:42:24;12.10;99.90
35563;DHT22;21665;40.108;18.302;2023-12-22T07:44:50;12.10;99.90
35563;DHT22;21665;40.108;18.302;2023-12-22T07:47:17;12.10;99.90
35563;DHT22;21665;40.108;18.302;2023-12-22T07:49:44;12.10;99.90
35563;DHT22;21665;40.108;18.302;2023-12-22T07:52:10;12.20;99.90
35563;DHT22;21665;40.108;18.302;2023-12-22T07:54:37;12.20;99.90
35563;DHT22;21665;40.108;18.302;2023-12-22T07:57:03;12.20;99.90
35563;DHT22;21665;40.108;18.302;2023-12-22T07:59:30;12.20;99.90
35563;DHT22;21665;40.108;18.302;2023-12-22T08:01:56;12.30;99.90
35563;DHT22;21665;40.108;18.302;2023-12-22T08:04:23;12.60;99.90
35563;DHT22;21665;40.108;18.302;2023-12-22T08:06:49;12.90;99.90
35563;DHT22;21665;40.108;18.302;2023-12-22T08:09:16;13.20;99.90
35563;DHT22;21665;40.108;18.302;2023-12-22T08:11:42;13.40;99.90
35563;DHT22;21665;40.108;18.302;2023-12-22T08:14:15;13.50;99.90
35563;DHT22;21665;40.108;18.302;2023-12-22T08:16:42;13.60;99.90
35563;DHT22;21665;40.108;18.302;2023-12-22T08:19:10;13.80;99.90
35563;DHT22;21665;40.108;18.302;2023-12-22T08:21:37;14.00;99.90
35563;DHT22;21665;40.108;18.302;2023-12-22T08:24:03;14.20;99.90
35563;DHT22;21665;40.108;18.302;2023-12-22T08:26:30;14.30;99.90
35563;DHT22;21665;40.108;18.302;2023-12-22T08:29:00;14.40;99.90
35563;DHT22;21665;40.108;18.302;2023-12-22T08:31:26;14.60;99.90
35563;DHT22;21665;40.108;18.302;2023-12-22T08:33:53;14.70;99.90
35563;DHT22;21665;40.108;18.302;2023-12-22T08:36:19;14.80;99.90
35563;DHT22;21665;40.108;18.302;2023-12-22T08:38:46;14.90;99.90
35563;DHT22;21665;40.108;18.302;2023-12-22T08:41:13;15.00;99.90
35563;DHT22;21665;40.108;18.302;2023-12-22T08:43:40;15.20;99.90
35563;DHT22;21665;40.108;18.302;2023-12-22T08:46:07;15.30;99.90
35563;DHT22;21665;40.108;18.302;2023-12-22T08:48:39;15.40;99.90
35563;DHT22;21665;40.108;18.302;2023-12-22T08:51:06;15.40;99.90
35563;DHT22;21665;40.108;18.302;2023-12-22T08:53:38;15.50;99.90
35563;DHT22;21665;40.108;18.302;2023-12-22T08:56:06;15.60;99.90
35563;DHT22;21665;40.108;18.302;2023-12-22T08:58:35;15.70;99.90
35563;DHT22;21665;40.108;18.302;2023-12-22T09:01:04;15.70;99.90
35563;DHT22;21665;40.108;18.302;2023-12-22T09:03:34;15.80;99.90
35563;DHT22;21665;40.108;18.302;2023-12-22T09:06:04;15.90;99.90
35563;DHT22;21665;40.108;18.302;2023-12-22T09:08:31;15.90;99.90
35563;DHT22;21665;40.108;18.302;2023-12-22T09:11:01;16.00;99.90
35563;DHT22;21665;40.108;18.302;2023-12-22T09:13:29;16.10;99.90
35563;DHT22;21665;40.108;18.302;2023-12-22T09:15:57;16.10;99.90
35563;DHT22;21665;40.108;18.302;2023-12-22T09:18:24;16.20;99.90
35563;DHT22;21665;40.108;18.302;2023-12-22T09:20:50;16.20;99.90
35563;DHT22;21665;40.108;18.302;2023-12-22T09:23:17;16.20;99.90
35563;DHT22;21665;40.108;18.302;2023-12-22T09:25:43;16.30;99.90
35563;DHT22;21665;40.108;18.302;2023-12-22T09:28:11;16.30;99.90
35563;DHT22;21665;40.108;18.302;2023-12-22T09:30:37;16.30;99.90
35563;DHT22;21665;40.108;18.302;2023-12-22T09:33:09;16.20;99.90
35563;DHT22;21665;40.108;18.302;2023-12-22T09:35:36;16.20;99.90
35563;DHT22;21665;40.108;18.302;2023-12-22T09:38:03;16.20;99.90
35563;DHT22;21665;40.108;18.302;2023-12-22T09:40:30;16.30;99.90
35563;DHT22;21665;40.108;18.302;2023-12-22T09:42:57;16.30;99.90
35563;DHT22;21665;40.108;18.302;2023-12-22T09:45:24;16.40;99.90
35563;DHT22;21665;40.108;18.302;2023-12-22T09:47:51;16.50;99.90
35563;DHT22;21665;40.108;18.302;2023-12-22T09:50:20;16.50;99.90
35563;DHT22;21665;40.108;18.302;2023-12-22T09:52:47;16.60;99.90
35563;DHT22;21665;40.108;18.302;2023-12-22T09:55:14;16.70;99.90
35563;DHT22;21665;40.108;18.302;2023-12-22T09:57:45;16.60;99.90
35563;DHT22;21665;40.108;18.302;2023-12-22T10:00:12;16.70;99.90
35563;DHT22;21665;40.108;18.302;2023-12-22T10:02:41;16.60;99.90
35563;DHT22;21665;40.108;18.302;2023-12-22T10:05:09;16.60;99.90
35563;DHT22;21665;40.108;18.302;2023-12-22T10:07:36;16.70;99.90
35563;DHT22;21665;40.108;18.302;2023-12-22T10:10:04;16.60;99.90
35563;DHT22;21665;40.108;18.302;2023-12-22T10:12:30;16.70;99.90
35563;DHT22;21665;40.108;18.302;2023-12-22T10:15:00;16.70;99.90
35563;DHT22;21665;40.108;18.302;2023-12-22T10:17:27;16.80;99.90
35563;DHT22;21665;40.108;18.302;2023-12-22T10:19:57;16.70;99.90
35563;DHT22;21665;40.108;18.302;2023-12-22T10:22:24;16.70;99.90
35563;DHT22;21665;40.108;18.302;2023-12-22T10:24:50;16.70;99.90
35563;DHT22;21665;40.108;18.302;2023-12-22T10:27:18;16.70;99.90
35563;DHT22;21665;40.108;18.302;2023-12-22T10:29:54;16.80;99.90
35563;DHT22;21665;40.108;18.302;2023-12-22T10:32:21;16.80;99.90
35563;DHT22;21665;40.108;18.302;2023-12-22T10:34:51;16.80;99.90
35563;DHT22;21665;40.108;18.302;2023-12-22T10:37:19;16.80;99.90
35563;DHT22;21665;40.108;18.302;2023-12-22T10:39:47;16.80;99.90
35563;DHT22;21665;40.108;18.302;2023-12-22T10:42:15;16.80;99.90
35563;DHT22;21665;40.108;18.302;2023-12-22T10:44:45;16.80;99.90
35563;DHT22;21665;40.108;18.302;2023-12-22T10:47:12;16.80;99.90
35563;DHT22;21665;40.108;18.302;2023-12-22T10:49:38;16.80;99.90
35563;DHT22;21665;40.108;18.302;2023-12-22T10:52:06;16.80;99.90
35563;DHT22;21665;40.108;18.302;2023-12-22T10:54:32;16.80;99.90
35563;DHT22;21665;40.108;18.302;2023-12-22T10:57:00;16.80;99.90
35563;DHT22;21665;40.108;18.302;2023-12-22T10:59:29;16.80;99.90
35563;DHT22;21665;40.108;18.302;2023-12-22T11:02:01;16.90;99.90
35563;DHT22;21665;40.108;18.302;2023-12-22T11:04:30;16.80;99.90
35563;DHT22;21665;40.108;18.302;2023-12-22T11:06:58;16.80;99.90
35563;DHT22;21665;40.108;18.302;2023-12-22T11:09:26;16.80;99.90
35563;DHT22;21665;40.108;18.302;2023-12-22T11:11:57;16.90;99.90
35563;DHT22;21665;40.108;18.302;2023-12-22T11:14:24;16.80;99.90
35563;DHT22;21665;40.108;18.302;2023-12-22T11:16:52;16.90;99.90
35563;DHT22;21665;40.108;18.302;2023-12-22T11:19:23;17.00;99.90
35563;DHT22;21665;40.108;18.302;2023-12-22T11:21:58;16.90;99.90
35563;DHT22;21665;40.108;18.302;2023-12-22T11:24:28;16.90;99.90
35563;DHT22;21665;40.108;18.302;2023-12-22T11:26:58;16.90;99.90
35563;DHT22;21665;40.108;18.302;2023-12-22T11:29:27;16.90;99.90
35563;DHT22;21665;40.108;18.302;2023-12-22T11:31:55;16.90;99.90
35563;DHT22;21665;40.108;18.302;2023-12-22T11:34:26;16.90;99.90
35563;DHT22;21665;40.108;18.302;2023-12-22T11:36:56;17.00;99.90
35563;DHT22;21665;40.108;18.302;2023-12-22T11:39:25;17.00;99.90
35563;DHT22;21665;40.108;18.302;2023-12-22T11:41:55;16.90;99.90
35563;DHT22;21665;40.108;18.302;2023-12-22T11:44:23;17.00;99.90
35563;DHT22;21665;40.108;18.302;2023-12-22T11:47:03;16.90;99.90
35563;DHT22;21665;40.108;18.302;2023-12-22T11:49:35;16.90;99.90
35563;DHT22;21665;40.108;18.302;2023-12-22T11:52:16;17.00;99.90
35563;DHT22;21665;40.108;18.302;2023-12-22T11:54:48;17.10;99.90
35563;DHT22;21665;40.108;18.302;2023-12-22T12:00:01;17.00;99.90
35563;DHT22;21665;40.108;18.302;2023-12-22T12:02:41;17.10;99.90
35563;DHT22;21665;40.108;18.302;2023-12-22T12:05:09;17.10;99.90
35563;DHT22;21665;40.108;18.302;2023-12-22T12:07:43;17.20;99.90
35563;DHT22;21665;40.108;18.302;2023-12-22T12:13:11;17.10;99.90
35563;DHT22;21665;40.108;18.302;2023-12-22T12:15:42;17.00;99.90
35563;DHT22;21665;40.108;18.302;2023-12-22T12:18:09;17.00;99.90
35563;DHT22;21665;40.108;18.302;2023-12-22T12:20:35;17.00;99.90
35563;DHT22;21665;40.108;18.302;2023-12-22T12:23:02;17.00;99.90
35563;DHT22;21665;40.108;18.302;2023-12-22T12:25:30;17.00;99.90
35563;DHT22;21665;40.108;18.302;2023-12-22T12:28:08;17.00;99.90
35563;DHT22;21665;40.108;18.302;2023-12-22T12:30:38;17.00;99.90
35563;DHT22;21665;40.108;18.302;2023-12-22T12:33:10;17.00;99.90
35563;DHT22;21665;40.108;18.302;2023-12-22T12:35:39;17.00;99.90
35563;DHT22;21665;40.108;18.302;2023-12-22T12:38:06;17.10;99.90
35563;DHT22;21665;40.108;18.302;2023-12-22T13:04:22;16.90;99.90
35563;DHT22;21665;40.108;18.302;2023-12-22T13:06:49;17.00;99.90
35563;DHT22;21665;40.108;18.302;2023-12-22T13:09:16;16.90;99.90
35563;DHT22;21665;40.108;18.302;2023-12-22T13:11:45;16.90;99.90
35563;DHT22;21665;40.108;18.302;2023-12-22T13:14:24;16.90;99.90
35563;DHT22;21665;40.108;18.302;2023-12-22T13:16:57;16.90;99.90
35563;DHT22;21665;40.108;18.302;2023-12-22T13:19:25;17.00;99.90
35563;DHT22;21665;40.108;18.302;2023-12-22T13:21:55;16.90;99.90
35563;DHT22;21665;40.108;18.302;2023-12-22T13:24:22;16.90;99.90
35563;DHT22;21665;40.108;18.302;2023-12-22T13:27:04;16.80;99.90
35563;DHT22;21665;40.108;18.302;2023-12-22T13:29:43;16.80;99.90
35563;DHT22;21665;40.108;18.302;2023-12-22T13:32:15;16.80;99.90
35563;DHT22;21665;40.108;18.302;2023-12-22T13:34:53;16.80;99.90
35563;DHT22;21665;40.108;18.302;2023-12-22T13:37:20;16.70;99.90
35563;DHT22;21665;40.108;18.302;2023-12-22T13:39:47;16.70;99.90
35563;DHT22;21665;40.108;18.302;2023-12-22T13:42:17;16.70;99.90
35563;DHT22;21665;40.108;18.302;2023-12-22T13:44:49;16.70;99.90
35563;DHT22;21665;40.108;18.302;2023-12-22T13:47:16;16.60;99.90
35563;DHT22;21665;40.108;18.302;2023-12-22T13:49:43;16.60;99.90
35563;DHT22;21665;40.108;18.302;2023-12-22T13:52:29;16.60;99.90
35563;DHT22;21665;40.108;18.302;2023-12-22T13:54:59;16.60;99.90
35563;DHT22;21665;40.108;18.302;2023-12-22T13:57:28;16.50;99.90
35563;DHT22;21665;40.108;18.302;2023-12-22T13:59:55;16.50;99.90
35563;DHT22;21665;40.108;18.302;2023-12-22T14:02:22;16.50;99.90
35563;DHT22;21665;40.108;18.302;2023-12-22T14:04:50;16.50;99.90
35563;DHT22;21665;40.108;18.302;2023-12-22T14:07:17;16.50;99.90
35563;DHT22;21665;40.108;18.302;2023-12-22T14:09:44;16.50;99.90
35563;DHT22;21665;40.108;18.302;2023-12-22T14:12:11;16.40;99.90
35563;DHT22;21665;40.108;18.302;2023-12-22T14:14:38;16.40;99.90
35563;DHT22;21665;40.108;18.302;2023-12-22T14:17:05;16.30;99.90
35563;DHT22;21665;40.108;18.302;2023-12-22T14:19:32;16.30;99.90
35563;DHT22;21665;40.108;18.302;2023-12-22T14:22:00;16.20;99.90
35563;DHT22;21665;40.108;18.302;2023-12-22T14:24:27;16.20;99.90
35563;DHT22;21665;40.108;18.302;2023-12-22T14:26:55;16.20;99.90
35563;DHT22;21665;40.108;18.302;2023-12-22T14:29:23;16.20;99.90
35563;DHT22;21665;40.108;18.302;2023-12-22T14:31:50;16.10;99.90
35563;DHT22;21665;40.108;18.302;2023-12-22T14:34:18;16.00;99.90
35563;DHT22;21665;40.108;18.302;2023-12-22T14:36:45;16.00;99.90
35563;DHT22;21665;40.108;18.302;2023-12-22T14:39:11;15.90;99.90
35563;DHT22;21665;40.108;18.302;2023-12-22T14:41:40;15.90;99.90
35563;DHT22;21665;40.108;18.302;2023-12-22T14:44:09;15.90;99.90
35563;DHT22;21665;40.108;18.302;2023-12-22T14:46:39;15.80;99.90
35563;DHT22;21665;40.108;18.302;2023-12-22T14:49:07;15.70;99.90
35563;DHT22;21665;40.108;18.302;2023-12-22T14:51:37;15.60;99.90
35563;DHT22;21665;40.108;18.302;2023-12-22T14:54:05;15.50;99.90
35563;DHT22;21665;40.108;18.302;2023-12-22T14:56:33;15.30;99.90
35563;DHT22;21665;40.108;18.302;2023-12-22T14:59:00;15.30;99.90
35563;DHT22;21665;40.108;18.302;2023-12-22T15:01:26;15.10;99.90
35563;DHT22;21665;40.108;18.302;2023-12-22T15:03:54;15.00;99.90
35563;DHT22;21665;40.108;18.302;2023-12-22T15:06:20;14.90;99.90
35563;DHT22;21665;40.108;18.302;2023-12-22T15:08:47;14.80;99.90
35563;DHT22;21665;40.108;18.302;2023-12-22T15:11:14;14.70;99.90
35563;DHT22;21665;40.108;18.302;2023-12-22T15:13:41;14.60;99.90
35563;DHT22;21665;40.108;18.302;2023-12-22T15:16:08;14.60;99.90
35563;DHT22;21665;40.108;18.302;2023-12-22T15:18:37;14.50;99.90
35563;DHT22;21665;40.108;18.302;2023-12-22T15:21:04;14.50;99.90
35563;DHT22;21665;40.108;18.302;2023-12-22T15:23:31;14.40;99.90
35563;DHT22;21665;40.108;18.302;2023-12-22T15:25:58;14.40;99.90
35563;DHT22;21665;40.108;18.302;2023-12-22T15:28:25;14.40;99.90
35563;DHT22;21665;40.108;18.302;2023-12-22T15:30:52;14.30;99.90
35563;DHT22;21665;40.108;18.302;2023-12-22T15:33:19;14.20;99.90
35563;DHT22;21665;40.108;18.302;2023-12-22T15:35:46;14.10;99.90
35563;DHT22;21665;40.108;18.302;2023-12-22T15:38:14;14.00;99.90
35563;DHT22;21665;40.108;18.302;2023-12-22T15:40:40;14.00;99.90
35563;DHT22;21665;40.108;18.302;2023-12-22T15:43:07;13.90;99.90
35563;DHT22;21665;40.108;18.302;2023-12-22T15:45:34;13.80;99.90
35563;DHT22;21665;40.108;18.302;2023-12-22T15:48:02;13.70;99.90
35563;DHT22;21665;40.108;18.302;2023-12-22T15:50:28;13.60;99.90
35563;DHT22;21665;40.108;18.302;2023-12-22T15:52:56;13.60;99.90
35563;DHT22;21665;40.108;18.302;2023-12-22T15:55:22;13.40;99.90
35563;DHT22;21665;40.108;18.302;2023-12-22T15:57:49;13.30;99.90
35563;DHT22;21665;40.108;18.302;2023-12-22T16:00:16;13.30;99.90